Time;durP1;ratioP1;P1;durP2;ratioP2;P2;SDS_P1;SDS_P2;PMS_P1;PMS_P2;Temp;Humidity;BMP_temperature;BMP_pressure;BME280_temperature;BME280_humidity;BME280_pressure;Samples;Min_cycle;Max_cycle;Signal;HPM_P1;HPM_P2
2021/03/31 00:01:09;;;;;;;26.92;13.85;;;;;;;7.21;56.52;100106.91;4974833;28;20403;-82
2021/03/31 00:03:41;;;;;;;24.27;12.95;;;;;;;7.22;57.05;100111.16;4960909;28;20039;-82
2021/03/31 00:06:06;;;;;;;17.55;9.52;;;;;;;7.19;56.61;100106.31;4957273;28;20396;-82
2021/03/31 00:08:58;;;;;;;14.48;9.25;;;;;;;7.18;57.21;100098.56;4958031;28;20105;-82
2021/03/31 00:11:43;;;;;;;12.82;8.27;;;;;;;7.15;56.66;100093.69;5275884;23;20042;-77
2021/03/31 00:14:12;;;;;;;17.13;8.95;;;;;;;7.15;57.07;100099.00;4955068;28;20529;-79
2021/03/31 00:28:35;;;;;;;13.30;7.82;;;;;;;7.06;56.68;100093.19;4978755;28;20035;-80
2021/03/31 00:43:26;;;;;;;15.05;7.82;;;;;;;6.81;55.94;100093.31;4917408;29;20076;-77
2021/03/31 00:45:52;;;;;;;12.80;8.35;;;;;;;6.78;56.44;100094.59;4909180;29;20390;-80
2021/03/31 00:49:05;;;;;;;15.85;8.90;;;;;;;6.77;56.20;100089.50;4923160;29;20008;-82
2021/03/31 00:51:43;;;;;;;17.25;8.45;;;;;;;6.70;56.50;100087.75;4906357;29;20036;-81
2021/03/31 01:54:11;;;;;;;17.70;8.70;;;;;;;5.84;57.10;100092.16;5434364;23;20109;-80
2021/03/31 01:56:37;;;;;;;14.98;7.70;;;;;;;5.76;56.79;100085.25;4945252;28;20030;-77
2021/03/31 01:59:04;;;;;;;12.13;8.10;;;;;;;5.75;56.98;100089.75;4957508;28;20043;-78
2021/03/31 02:01:30;;;;;;;13.48;8.27;;;;;;;5.71;57.11;100098.38;4954683;28;20026;-78
2021/03/31 02:03:58;;;;;;;12.27;8.95;;;;;;;5.66;57.17;100082.31;4938988;29;20027;-78
2021/03/31 02:06:27;;;;;;;;;;;;;;;5.70;57.18;100083.47;4949035;28;20058;-78
2021/03/31 02:08:52;;;;;;;15.68;7.88;;;;;;;5.70;56.71;100086.97;4958353;28;19996;-79
2021/03/31 02:11:19;;;;;;;12.82;7.55;;;;;;;5.69;56.31;100087.16;4946301;29;20058;-79
2021/03/31 02:13:46;;;;;;;13.27;7.40;;;;;;;5.70;56.48;100086.97;4942339;28;20023;-79
2021/03/31 02:16:13;;;;;;;13.65;7.63;;;;;;;5.71;56.27;100087.75;4953132;28;20023;-77
2021/03/31 02:18:38;;;;;;;13.07;7.90;;;;;;;5.70;56.19;100089.63;4949118;28;20035;-76
2021/03/31 02:21:04;;;;;;;14.07;7.68;;;;;;;5.71;55.52;100082.44;4961825;28;20096;-78
2021/03/31 03:16:17;;;;;;;10.73;6.97;;;;;;;5.43;53.65;100070.44;4978666;28;20050;-80
2021/03/31 03:26:13;;;;;;;10.75;6.72;;;;;;;5.43;53.58;100073.91;4972523;28;20029;-82
2021/03/31 03:28:49;;;;;;;13.45;6.72;;;;;;;5.42;53.39;100074.94;4955786;28;20498;-80
2021/03/31 03:31:15;;;;;;;10.60;7.35;;;;;;;5.43;53.63;100075.75;4954423;28;20085;-79
2021/03/31 03:33:43;;;;;;;12.75;7.20;;;;;;;5.42;53.61;100076.75;4980810;28;20627;-80
2021/03/31 03:36:10;;;;;;;12.65;7.15;;;;;;;5.41;53.75;100075.97;4941370;28;20061;-80
2021/03/31 03:38:37;;;;;;;10.95;6.70;;;;;;;5.42;53.66;100066.97;4961154;28;20510;-80
2021/03/31 03:41:09;;;;;;;14.85;6.85;;;;;;;5.44;54.03;100061.44;4950796;29;20110;-78
2021/03/31 03:46:56;;;;;;;10.93;6.68;;;;;;;5.43;55.14;100063.31;5380213;23;20078;-80
2021/03/31 03:49:22;;;;;;;16.10;8.65;;;;;;;5.44;55.34;100059.63;4961252;28;20027;-79
2021/03/31 03:51:48;;;;;;;15.88;9.18;;;;;;;5.44;55.92;100059.63;4941367;28;20027;-80
2021/03/31 03:54:14;;;;;;;13.70;9.02;;;;;;;5.45;56.91;100071.03;4936440;29;20031;-78
2021/03/31 03:56:48;;;;;;;15.25;8.93;;;;;;;5.44;57.81;100061.44;4943128;29;20118;-80
2021/03/31 03:59:24;;;;;;;13.27;7.97;;;;;;;5.46;57.85;100072.66;4936509;29;20030;-78
2021/03/31 04:02:39;;;;;;;14.25;9.13;;;;;;;5.45;59.01;100077.16;4949379;29;20031;-82
2021/03/31 04:07:52;;;;;;;19.05;10.15;;;;;;;5.41;59.53;100075.97;5301703;23;20032;31
2021/03/31 04:11:04;;;;;;;15.48;9.13;;;;;;;5.42;59.45;100082.06;4927114;29;20077;-82
2021/03/31 04:17:54;;;;;;;18.48;9.70;;;;;;;5.54;58.69;100100.75;5583841;23;20032;31
2021/03/31 04:40:14;;;;;;;23.00;13.75;;;;;;;7.59;52.15;100069.47;5932808;23;20020;31
2021/03/31 04:46:42;;;;;;;26.33;15.85;;;;;;;8.72;49.61;100092.38;4944119;29;20042;-79
2021/03/31 04:49:07;;;;;;;35.75;15.23;;;;;;;9.04;49.62;100086.56;4922946;29;20463;-79
2021/03/31 04:51:33;;;;;;;27.10;14.75;;;;;;;9.41;49.06;100086.94;4920199;29;20031;-79
2021/03/31 04:53:58;;;;;;;20.10;12.63;;;;;;;9.70;47.87;100081.47;4967061;28;20445;-79
2021/03/31 04:56:24;;;;;;;23.13;11.50;;;;;;;9.99;47.08;100072.53;4931939;29;20564;-79
2021/03/31 04:58:49;;;;;;;14.80;9.85;;;;;;;10.25;46.57;100079.03;4916190;29;20027;-79
2021/03/31 05:01:15;;;;;;;12.25;8.52;;;;;;;10.39;46.30;100077.63;4926328;29;20039;-79
2021/03/31 05:03:40;;;;;;;16.58;10.02;;;;;;;10.64;45.78;100084.31;4935456;29;20126;-80
2021/03/31 05:06:06;;;;;;;16.67;8.88;;;;;;;10.87;45.89;100093.13;4930074;29;20031;-90
2021/03/31 05:08:32;;;;;;;12.77;7.72;;;;;;;11.15;45.26;100086.72;4908148;28;20045;-90
2021/03/31 05:10:58;;;;;;;13.07;8.85;;;;;;;11.35;44.67;100088.78;4935180;29;20019;-93
2021/03/31 05:13:24;;;;;;;16.42;10.05;;;;;;;11.52;43.14;100095.84;4952744;28;20519;-90
2021/03/31 05:15:52;;;;;;;18.27;11.52;;;;;;;11.60;43.75;100098.06;4929858;28;20054;-88
2021/03/31 05:18:18;;;;;;;25.02;12.27;;;;;;;11.69;42.82;100095.72;4950136;29;20035;-90
2021/03/31 05:20:44;;;;;;;12.60;8.85;;;;;;;11.74;41.76;100100.31;4936898;29;20031;-87
2021/03/31 05:23:10;;;;;;;13.98;9.35;;;;;;;11.74;42.66;100106.47;4934865;29;20075;-88
2021/03/31 05:25:39;;;;;;;11.73;8.15;;;;;;;11.81;41.77;100098.22;4941174;28;20050;-92
2021/03/31 05:28:07;;;;;;;15.48;8.68;;;;;;;11.76;41.97;100103.53;4936074;28;20396;-83
2021/03/31 05:40:49;;;;;;;15.50;9.73;;;;;;;11.17;43.63;100102.53;4990800;28;20050;-83
2021/03/31 05:43:37;;;;;;;16.27;9.82;;;;;;;10.91;43.19;100096.91;4925628;29;20032;-81
2021/03/31 05:49:05;;;;;;;13.63;8.77;;;;;;;10.45;44.53;100115.94;4892945;29;20098;-79
2021/03/31 05:51:35;;;;;;;11.00;8.30;;;;;;;10.30;44.44;100116.53;4879725;29;20016;-80
2021/03/31 05:54:00;;;;;;;13.18;7.90;;;;;;;10.05;44.96;100107.09;4872758;29;20067;-80
2021/03/31 05:56:30;;;;;;;13.30;8.70;;;;;;;9.89;45.93;100116.75;4861497;29;20053;-80
2021/03/31 05:58:57;;;;;;;14.85;8.60;;;;;;;9.86;46.11;100121.78;4875071;29;20031;-79
2021/03/31 06:01:25;;;;;;;11.98;8.10;;;;;;;9.85;45.99;100112.97;4879022;29;20025;-81
2021/03/31 06:04:51;;;;;;;11.65;8.48;;;;;;;10.03;46.24;100124.44;4873466;29;20044;-81
2021/03/31 06:07:17;;;;;;;9.45;6.90;;;;;;;9.93;44.30;100114.41;4872471;29;20037;-79
2021/03/31 06:10:23;;;;;;;10.23;6.78;;;;;;;9.86;44.94;100106.59;4893091;29;20060;-83
2021/03/31 06:13:11;;;;;;;10.70;7.35;;;;;;;9.72;44.41;100102.63;4867581;29;20031;-79
2021/03/31 06:25:43;;;;;;;8.48;5.72;;;;;;;9.28;42.94;100104.06;4876397;29;20033;-81
2021/03/31 06:31:50;;;;;;;8.35;5.93;;;;;;;9.10;44.30;100115.75;4815243;29;20127;-80
2021/03/31 06:34:23;;;;;;;9.52;6.60;;;;;;;9.04;44.12;100108.69;4806086;29;20589;-79
2021/03/31 06:37:50;;;;;;;10.40;7.35;;;;;;;9.05;44.52;100105.00;4808672;29;20031;-82
2021/03/31 06:40:46;;;;;;;9.23;6.75;;;;;;;9.08;43.55;100101.84;4775139;30;20471;-81
2021/03/31 06:44:19;;;;;;;10.05;6.28;;;;;;;9.12;43.69;100111.00;4775765;30;20059;-83
2021/03/31 06:48:00;;;;;;;11.23;7.78;;;;;;;9.16;45.39;100105.97;4735622;30;20056;-82
2021/03/31 06:50:26;;;;;;;9.40;5.68;;;;;;;9.26;43.08;100102.69;4751320;29;20056;-79
2021/03/31 06:58:55;;;;;;;7.90;6.07;;;;;;;9.21;43.61;100095.38;5768379;23;20050;-81
2021/03/31 07:01:31;;;;;;;8.52;5.57;;;;;;;9.31;43.64;100105.44;4938744;29;20134;-77
2021/03/31 07:10:36;;;;;;;6.57;4.75;;;;;;;9.34;43.59;100090.78;5590895;23;20070;-86
2021/03/31 07:19:47;;;;;;;7.45;5.30;;;;;;;9.65;41.57;100093.97;5145112;23;20055;-85
2021/03/31 07:31:59;;;;;;;9.65;4.90;;;;;;;9.84;41.05;100091.81;4915324;29;20048;-79
2021/03/31 07:34:28;;;;;;;6.63;4.50;;;;;;;9.89;40.44;100075.88;4956254;28;20019;-79
2021/03/31 07:36:55;;;;;;;5.25;4.75;;;;;;;9.85;40.90;100098.78;4957688;28;20057;-79
2021/03/31 07:39:41;;;;;;;6.63;4.72;;;;;;;9.84;40.24;100102.50;4944441;28;20117;-81
2021/03/31 07:54:59;;;;;;;;;;;;;;;10.00;40.17;100090.22;5214231;23;20037;-85
2021/03/31 07:58:37;;;;;;;8.88;4.28;;;;;;;9.91;38.41;100100.47;4987175;28;19906;-83
2021/03/31 08:02:14;;;;;;;7.10;4.82;;;;;;;9.81;37.37;100116.38;4899390;29;20073;-81
2021/03/31 08:08:14;;;;;;;8.95;5.40;;;;;;;9.70;38.58;100110.06;4979329;28;20063;-81
2021/03/31 08:10:44;;;;;;;5.70;5.10;;;;;;;9.47;38.47;100122.50;4970297;28;20033;-78
2021/03/31 08:16:21;;;;;;;8.30;5.45;;;;;;;9.36;39.65;100065.50;5025982;23;20468;-78
2021/03/31 08:19:31;;;;;;;6.85;5.55;;;;;;;9.32;39.37;100093.69;4954725;28;20047;-81
2021/03/31 08:22:37;;;;;;;9.50;6.13;;;;;;;9.33;40.21;100091.88;5124794;23;20497;-79
2021/03/31 08:25:37;;;;;;;7.70;6.20;;;;;;;9.37;40.00;100088.44;4960901;28;20062;-80
2021/03/31 08:28:43;;;;;;;10.35;5.97;;;;;;;9.38;40.06;100095.41;5041248;23;20055;-80
2021/03/31 08:31:40;;;;;;;7.03;5.53;;;;;;;9.38;40.30;100098.06;4972458;28;20027;-80
2021/03/31 08:34:50;;;;;;;5.60;4.55;;;;;;;9.32;40.03;100080.34;4978216;28;20025;-82
2021/03/31 08:38:16;;;;;;;7.25;4.53;;;;;;;9.42;40.50;100088.56;4908797;29;20103;-80
2021/03/31 08:51:28;;;;;;;6.90;5.18;;;;;;;9.19;41.38;100086.00;4994595;28;20061;-80
2021/03/31 08:57:23;;;;;;;9.38;6.22;;;;;;;9.13;40.90;100107.28;5200110;23;20082;-83
2021/03/31 09:00:33;;;;;;;7.95;6.13;;;;;;;9.20;41.26;100092.97;4951654;28;20032;-81
2021/03/31 09:03:08;;;;;;;7.60;6.35;;;;;;;9.36;41.31;100062.81;4949705;28;20048;-83
2021/03/31 09:05:35;;;;;;;9.07;5.90;;;;;;;9.49;40.70;100077.69;4944241;29;20030;-81
2021/03/31 09:12:25;;;;;;;6.65;5.40;;;;;;;9.80;40.72;100035.41;4929535;29;20114;-83
2021/03/31 09:14:56;;;;;;;8.80;6.38;;;;;;;9.97;41.43;100048.72;4900268;29;20406;-80
2021/03/31 09:17:27;;;;;;;6.90;5.63;;;;;;;9.90;39.93;100072.97;4897431;29;20055;-81
2021/03/31 09:19:56;;;;;;;7.97;6.18;;;;;;;9.87;40.79;100065.41;4898088;29;20028;-81
2021/03/31 09:22:27;;;;;;;7.13;4.93;;;;;;;9.78;40.44;100041.00;4897776;29;20036;-80
2021/03/31 09:24:58;;;;;;;6.47;5.40;;;;;;;9.82;40.90;100040.53;4900652;29;20048;-82
2021/03/31 09:27:32;;;;;;;6.63;5.60;;;;;;;9.93;41.00;100028.91;4933370;29;20091;-80
2021/03/31 09:30:15;;;;;;;8.82;6.15;;;;;;;9.99;39.89;100027.91;4921752;29;20401;-85
2021/03/31 09:33:00;;;;;;;6.88;4.90;;;;;;;10.06;38.79;100030.41;4935474;29;20401;-81
2021/03/31 09:35:45;;;;;;;8.38;6.88;;;;;;;9.98;38.57;100031.63;4950834;28;20067;-85
2021/03/31 09:41:56;;;;;;;6.18;5.25;;;;;;;9.89;39.51;100020.56;4962370;28;20051;-87
2021/03/31 09:44:37;;;;;;;7.07;5.07;;;;;;;9.91;39.74;100021.16;4942133;28;20038;-87
2021/03/31 09:47:07;;;;;;;6.90;4.70;;;;;;;10.03;39.57;100001.50;4961036;28;20063;-88
2021/03/31 09:49:35;;;;;;;6.55;4.90;;;;;;;10.05;38.53;100032.25;4943426;29;20027;-91
2021/03/31 09:52:05;;;;;;;6.70;5.63;;;;;;;10.05;38.38;99996.72;4935356;29;20024;-86
2021/03/31 09:55:16;;;;;;;9.82;5.90;;;;;;;10.20;39.45;99998.75;4954805;29;20023;-87
2021/03/31 09:58:32;;;;;;;6.63;5.47;;;;;;;10.32;38.35;100007.47;4946395;28;20500;-85
2021/03/31 10:01:46;;;;;;;6.97;4.60;;;;;;;10.31;38.76;99991.66;4949776;28;20063;-85
2021/03/31 10:04:37;;;;;;;8.57;5.97;;;;;;;10.20;38.76;100002.22;4952339;29;20046;-88
2021/03/31 10:07:50;;;;;;;10.93;6.47;;;;;;;10.31;38.61;99997.81;4955862;29;20023;-85
2021/03/31 10:18:04;;;;;;;8.50;5.03;;;;;;;10.45;39.61;99981.41;4875486;29;20048;-87
2021/03/31 10:31:34;;;;;;;5.70;5.15;;;;;;;10.43;38.27;99964.81;4798846;30;20045;-86
2021/03/31 10:46:47;;;;;;;6.63;4.53;;;;;;;10.41;37.81;99946.34;4759908;30;20096;-81
2021/03/31 10:55:06;;;;;;;6.72;4.68;;;;;;;10.67;36.63;99922.53;4753530;30;20043;-84
2021/03/31 10:57:51;;;;;;;6.70;4.50;;;;;;;10.66;37.33;99915.56;4767455;30;20032;-82
2021/03/31 11:01:10;;;;;;;6.15;3.90;;;;;;;10.73;35.50;99913.47;4766566;30;20050;-85
2021/03/31 11:06:24;;;;;;;6.13;4.82;;;;;;;10.93;36.81;99912.03;4846557;29;20086;-83
2021/03/31 11:08:56;;;;;;;5.10;4.50;;;;;;;10.89;36.93;99909.06;4826330;29;20041;-85
2021/03/31 11:11:45;;;;;;;6.68;5.97;;;;;;;10.82;37.40;99893.19;4839910;29;20038;-90
2021/03/31 11:26:46;;;;;;;6.40;4.45;;;;;;;10.95;36.18;99910.69;4903199;29;20127;-87
2021/03/31 11:29:13;;;;;;;4.72;4.38;;;;;;;10.98;35.34;99877.25;4884662;29;20065;-93
2021/03/31 11:31:40;;;;;;;5.60;4.85;;;;;;;11.02;35.98;99894.41;4917047;29;20012;-79
2021/03/31 11:34:05;;;;;;;6.20;5.32;;;;;;;11.11;35.79;99884.00;4899143;29;20024;-83
2021/03/31 11:36:32;;;;;;;7.50;4.38;;;;;;;11.11;35.23;99882.16;4898201;29;20031;-82
2021/03/31 11:38:57;;;;;;;6.93;5.45;;;;;;;11.17;35.63;99869.63;4898053;29;20027;-81
2021/03/31 11:41:23;;;;;;;8.23;4.80;;;;;;;11.20;35.55;99885.16;4899409;29;20020;-87
2021/03/31 11:44:08;;;;;;;6.00;4.35;;;;;;;11.15;35.35;99882.44;4915441;29;20020;-87
2021/03/31 11:46:36;;;;;;;4.95;3.85;;;;;;;11.18;36.18;99872.03;4913305;29;20032;-88
2021/03/31 11:49:02;;;;;;;5.23;4.27;;;;;;;11.29;36.37;99842.63;4884591;29;20134;-90
2021/03/31 11:51:27;;;;;;;7.38;5.03;;;;;;;11.34;34.84;99862.19;4897920;29;20359;-87
2021/03/31 11:53:53;;;;;;;5.30;4.70;;;;;;;11.38;34.24;99849.88;4899367;29;20035;-94
2021/03/31 11:56:18;;;;;;;7.68;4.65;;;;;;;11.44;33.90;99841.91;4899038;29;20016;-80
2021/03/31 11:58:44;;;;;;;6.65;4.03;;;;;;;11.47;34.09;99814.56;4898224;29;20031;-83
2021/03/31 12:01:09;;;;;;;6.90;3.95;;;;;;;11.46;34.64;99845.09;4911523;29;20048;-84
2021/03/31 12:03:35;;;;;;;6.30;4.72;;;;;;;11.51;34.03;99840.56;4928335;29;20071;-91
2021/03/31 12:06:00;;;;;;;5.93;4.13;;;;;;;11.54;33.88;99826.63;4936708;29;20028;-94
2021/03/31 12:08:27;;;;;;;5.70;4.00;;;;;;;11.60;34.26;99810.59;4917856;29;20051;-94
2021/03/31 12:10:53;;;;;;;5.15;4.28;;;;;;;11.69;32.86;99799.09;4918454;29;20031;-93
2021/03/31 12:13:19;;;;;;;11.25;5.38;;;;;;;11.71;33.82;99814.13;4934927;29;20040;-89
2021/03/31 12:15:44;;;;;;;4.68;3.72;;;;;;;11.70;33.77;99810.63;4930537;29;20495;-86
2021/03/31 12:18:11;;;;;;;6.20;4.20;;;;;;;11.67;33.76;99789.72;4916079;29;20030;-84
2021/03/31 12:20:36;;;;;;;5.43;3.95;;;;;;;11.66;33.37;99799.63;4916267;29;20095;-89
2021/03/31 12:23:02;;;;;;;6.32;3.97;;;;;;;11.63;33.88;99786.78;4916352;29;20032;-88
2021/03/31 12:25:28;;;;;;;4.25;3.63;;;;;;;11.64;32.95;99779.53;4932433;29;20036;-88
2021/03/31 12:27:57;;;;;;;3.78;3.33;;;;;;;11.73;33.53;99779.81;4932583;29;20060;-89
2021/03/31 12:30:24;;;;;;;4.80;2.72;;;;;;;11.78;32.76;99782.50;4915722;29;20122;-89
2021/03/31 12:32:49;;;;;;;3.47;3.17;;;;;;;11.78;33.13;99774.44;4932355;29;20032;-89
2021/03/31 12:35:15;;;;;;;4.30;3.47;;;;;;;11.77;33.54;99764.81;4916346;29;20023;-88
2021/03/31 12:37:41;;;;;;;5.07;2.90;;;;;;;11.83;33.54;99761.09;4915985;29;20106;-89
2021/03/31 12:40:08;;;;;;;4.50;3.97;;;;;;;11.90;32.68;99763.47;4916371;29;20024;-88
2021/03/31 12:42:33;;;;;;;4.80;4.40;;;;;;;11.84;32.80;99757.34;4916220;29;20568;-90
2021/03/31 12:44:59;;;;;;;5.13;3.42;;;;;;;11.92;33.27;99756.78;4916026;29;20123;-90
2021/03/31 12:47:25;;;;;;;5.22;3.67;;;;;;;12.01;33.15;99759.75;4916233;29;20102;-90
2021/03/31 12:49:51;;;;;;;7.63;4.18;;;;;;;12.05;32.85;99747.44;4916113;29;20118;-91
2021/03/31 12:52:55;;;;;;;6.70;4.57;;;;;;;12.12;33.49;99752.53;4915735;29;20035;-89
2021/03/31 12:55:13;;;;;;;4.55;3.65;;;;;;;12.22;34.64;99731.09;4929825;29;20046;-89
2021/03/31 12:57:40;;;;;;;5.00;4.22;;;;;;;12.29;33.71;99736.97;4916353;29;20059;-89
2021/03/31 13:00:07;;;;;;;5.55;4.03;;;;;;;12.23;32.74;99732.69;4915722;29;20051;-90
2021/03/31 13:02:33;;;;;;;5.22;3.58;;;;;;;12.24;33.47;99737.00;4919041;29;20046;-89
2021/03/31 13:04:58;;;;;;;4.35;3.40;;;;;;;12.28;33.72;99731.84;4936057;29;20473;-90
2021/03/31 13:07:25;;;;;;;5.45;3.88;;;;;;;12.28;32.81;99718.44;4935245;29;20034;-88
2021/03/31 13:09:50;;;;;;;5.47;2.95;;;;;;;12.31;33.69;99725.97;4919826;29;20056;-89
2021/03/31 13:13:05;;;;;;;7.13;3.90;;;;;;;12.31;33.20;99718.72;4919828;29;20024;-89
2021/03/31 13:22:58;;;;;;;4.88;3.20;;;;;;;12.44;33.14;99698.59;4936725;29;20034;-90
2021/03/31 13:30:35;;;;;;;4.28;3.15;;;;;;;12.59;32.41;99688.91;4936184;29;20032;-91
2021/03/31 13:38:18;;;;;;;6.00;3.58;;;;;;;12.68;33.52;99691.81;4936534;29;20050;-91
2021/03/31 13:40:43;;;;;;;3.60;3.30;;;;;;;12.71;33.15;99673.28;4920134;29;20023;-92
2021/03/31 13:43:09;;;;;;;5.63;3.28;;;;;;;12.72;32.19;99674.06;4919687;29;20484;-90
2021/03/31 13:45:35;;;;;;;4.60;3.33;;;;;;;12.69;32.88;99682.69;4919015;29;20753;-90
2021/03/31 13:48:04;;;;;;;5.05;3.47;;;;;;;12.62;32.82;99673.06;4919404;29;20122;-90
2021/03/31 13:50:32;;;;;;;4.25;3.70;;;;;;;12.64;33.08;99662.03;4934816;29;20032;-89
2021/03/31 13:53:00;;;;;;;3.88;2.97;;;;;;;12.67;32.82;99641.91;4919073;29;20059;-90
2021/03/31 13:55:32;;;;;;;3.22;2.83;;;;;;;12.75;32.87;99654.75;4919186;29;20047;-90
2021/03/31 13:58:00;;;;;;;6.00;3.50;;;;;;;12.74;32.46;99651.28;4919057;29;20031;-90
2021/03/31 14:00:28;;;;;;;5.43;3.47;;;;;;;12.78;32.54;99640.75;4918392;29;20063;-90
2021/03/31 14:02:55;;;;;;;4.60;3.70;;;;;;;12.81;32.13;99649.06;4919220;29;20027;-89
2021/03/31 14:05:22;;;;;;;4.00;3.00;;;;;;;12.82;31.59;99647.22;4918838;29;20294;-91
2021/03/31 14:07:48;;;;;;;3.58;3.10;;;;;;;12.84;32.65;99644.25;4918695;29;20067;-91
2021/03/31 14:10:14;;;;;;;3.58;2.90;;;;;;;12.86;32.09;99639.41;4918717;29;20446;-91
2021/03/31 14:12:41;;;;;;;4.15;3.45;;;;;;;12.80;31.59;99625.19;4918212;29;20027;-91
2021/03/31 14:15:07;;;;;;;4.00;3.60;;;;;;;12.83;31.88;99646.13;4918457;29;20477;-91
2021/03/31 14:17:34;;;;;;;6.32;3.58;;;;;;;12.79;32.09;99626.28;4918269;29;20035;-90
2021/03/31 14:20:03;;;;;;;7.45;3.45;;;;;;;12.78;32.02;99612.06;4918626;29;20031;-91
2021/03/31 14:22:29;;;;;;;5.00;3.97;;;;;;;12.81;32.17;99622.22;4918073;29;20066;-91
2021/03/31 14:24:55;;;;;;;4.22;3.63;;;;;;;12.81;32.52;99626.81;4918769;29;20023;-91
2021/03/31 14:27:22;;;;;;;4.45;3.95;;;;;;;12.75;32.55;99630.59;4918488;29;20473;-91
2021/03/31 14:29:48;;;;;;;5.70;3.88;;;;;;;12.74;32.22;99610.19;4918310;29;20488;-91
2021/03/31 14:32:14;;;;;;;4.85;3.22;;;;;;;12.74;31.72;99623.63;4918455;29;20027;-91
2021/03/31 14:34:41;;;;;;;5.18;3.53;;;;;;;12.75;32.43;99622.53;4918559;29;20031;-91
2021/03/31 14:37:08;;;;;;;4.18;2.92;;;;;;;12.78;31.81;99609.38;4918360;29;20024;-91
2021/03/31 14:39:34;;;;;;;7.00;3.88;;;;;;;12.80;32.02;99603.72;4934163;29;20031;-90
2021/03/31 14:42:00;;;;;;;5.00;3.90;;;;;;;12.91;32.51;99604.47;4918491;29;20025;-91
2021/03/31 14:44:26;;;;;;;8.30;4.07;;;;;;;12.91;31.90;99604.47;4917972;29;20488;-91
2021/03/31 14:46:51;;;;;;;7.38;4.32;;;;;;;12.96;31.78;99609.81;4918442;29;20036;-90
2021/03/31 14:49:18;;;;;;;3.83;3.00;;;;;;;12.92;31.76;99596.13;4918047;29;20035;-90
2021/03/31 14:57:19;;;;;;;4.22;3.22;;;;;;;13.02;32.11;99589.09;4935308;29;20031;-90
2021/03/31 14:59:45;;;;;;;2.67;2.47;;;;;;;13.04;31.07;99600.38;4917713;29;20051;-91
2021/03/31 15:02:13;;;;;;;3.72;3.28;;;;;;;13.02;31.71;99597.16;4918075;29;20038;-90
2021/03/31 15:04:42;;;;;;;4.90;3.28;;;;;;;13.02;31.81;99594.47;4917956;29;20540;-90
2021/03/31 15:07:07;;;;;;;;;;;;;;;13.04;32.26;99586.97;4902475;29;20038;-89
2021/03/31 15:09:33;;;;;;;5.88;3.67;;;;;;;13.05;31.90;99584.00;4917961;29;19907;-89
2021/03/31 15:11:59;;;;;;;5.95;4.10;;;;;;;13.07;31.87;99586.38;4917992;29;20050;-89
2021/03/31 15:14:29;;;;;;;4.35;3.47;;;;;;;13.05;31.82;99584.00;4918004;29;20028;-91
2021/03/31 15:16:55;;;;;;;4.47;3.58;;;;;;;13.01;31.69;99574.06;4918545;29;20032;-91
2021/03/31 15:24:41;;;;;;;7.38;2.95;;;;;;;12.97;31.52;99592.63;4934359;29;20123;-91
2021/03/31 15:27:08;;;;;;;4.43;3.45;;;;;;;12.96;32.07;99572.22;4919056;29;20036;-91
2021/03/31 15:29:34;;;;;;;6.65;4.55;;;;;;;12.96;32.58;99581.09;4917958;29;20051;-90
2021/03/31 15:32:00;;;;;;;7.45;3.65;;;;;;;13.00;32.15;99581.34;4918018;29;20031;-91
2021/03/31 15:34:26;;;;;;;4.63;3.38;;;;;;;12.97;32.36;99576.50;4917948;29;20042;-90
2021/03/31 15:36:51;;;;;;;3.92;3.42;;;;;;;12.99;31.63;99590.47;4917978;29;20035;-90
2021/03/31 15:39:17;;;;;;;5.38;3.55;;;;;;;12.95;32.05;99589.41;4917785;29;20118;-90
2021/03/31 15:41:44;;;;;;;5.32;3.03;;;;;;;12.91;32.18;99581.09;4917837;29;20024;-90
2021/03/31 15:44:11;;;;;;;4.53;3.85;;;;;;;12.88;32.01;99575.50;4917808;29;20067;-91
2021/03/31 15:46:41;;;;;;;4.22;3.83;;;;;;;12.84;32.10;99579.81;4917653;29;20079;-91
2021/03/31 15:49:08;;;;;;;3.83;3.38;;;;;;;12.82;32.35;99580.91;4933602;29;20448;-91
2021/03/31 15:51:36;;;;;;;5.78;3.92;;;;;;;12.78;32.76;99569.13;4933311;29;20078;-90
2021/03/31 15:54:02;;;;;;;6.45;3.65;;;;;;;12.75;32.80;99575.03;4917817;29;20370;-91
2021/03/31 15:56:28;;;;;;;5.18;4.07;;;;;;;12.72;33.23;99564.88;4917496;29;20039;-90
2021/03/31 15:58:53;;;;;;;6.10;4.70;;;;;;;12.70;33.20;99574.28;4917582;29;20171;-90
2021/03/31 16:01:19;;;;;;;5.68;4.22;;;;;;;12.69;33.21;99553.88;4917102;29;20044;-89
2021/03/31 16:04:09;;;;;;;9.43;3.58;;;;;;;12.64;33.60;99558.19;4917468;29;20023;-91
2021/03/31 16:09:25;;;;;;;9.15;5.03;;;;;;;12.64;33.65;99555.50;4865921;29;20182;-90
2021/03/31 16:11:51;;;;;;;7.38;4.00;;;;;;;12.62;33.45;99554.16;4918353;29;20123;-89
2021/03/31 16:14:16;;;;;;;7.63;4.78;;;;;;;12.61;33.70;99544.53;4917626;29;20031;-84
2021/03/31 16:16:42;;;;;;;20.00;13.27;;;;;;;12.56;33.45;99547.22;4929178;29;20042;-87
2021/03/31 16:19:07;;;;;;;43.50;28.35;;;;;;;12.51;33.67;99550.72;4917287;29;20090;-86
2021/03/31 16:21:34;;;;;;;13.77;9.27;;;;;;;12.50;34.38;99538.44;4902648;29;20027;-92
2021/03/31 16:24:01;;;;;;;24.17;13.38;;;;;;;12.52;34.35;99541.63;4901258;29;20043;-91
2021/03/31 16:26:27;;;;;;;27.08;16.08;;;;;;;12.47;33.66;99536.28;4901162;29;20118;-94
2021/03/31 16:31:51;;;;;;;18.20;11.93;;;;;;;12.39;34.38;99526.13;4932307;29;20094;-91
2021/03/31 16:34:19;;;;;;;9.70;7.82;;;;;;;12.35;34.20;99533.13;4913272;29;20118;-85
2021/03/31 16:36:54;;;;;;;29.27;15.27;;;;;;;12.33;34.79;99536.09;4900523;29;20035;-90
2021/03/31 16:39:22;;;;;;;24.27;14.02;;;;;;;12.29;34.82;99533.16;4916687;29;20027;-89
2021/03/31 16:41:48;;;;;;;55.92;28.73;;;;;;;12.27;34.81;99534.50;4911057;29;20104;-85
2021/03/31 16:44:15;;;;;;;51.95;27.40;;;;;;;12.25;34.69;99540.13;4913853;29;20040;-84
2021/03/31 16:46:41;;;;;;;20.63;13.35;;;;;;;12.19;35.16;99532.41;4903253;29;20433;-85
2021/03/31 16:49:10;;;;;;;15.80;8.52;;;;;;;12.15;34.97;99548.22;4929678;29;20027;-78
2021/03/31 16:51:40;;;;;;;30.52;17.75;;;;;;;12.09;35.62;99549.31;4898369;29;20054;-80
2021/03/31 16:54:06;;;;;;;55.05;29.13;;;;;;;12.01;35.72;99546.13;4911302;29;20031;-82
2021/03/31 16:56:34;;;;;;;22.20;12.13;;;;;;;11.95;36.20;99544.50;4913095;29;20028;-77
2021/03/31 16:59:00;;;;;;;15.20;8.57;;;;;;;11.88;36.54;99556.56;4931423;29;20165;-76
2021/03/31 17:01:28;;;;;;;9.80;7.15;;;;;;;11.81;36.65;99549.63;4912879;29;20451;-77
2021/03/31 17:03:54;;;;;;;12.35;7.25;;;;;;;11.76;37.20;99544.28;4916382;29;20031;-79
2021/03/31 17:06:19;;;;;;;10.00;7.30;;;;;;;11.66;37.77;99560.38;4916412;29;20050;-77
2021/03/31 17:08:44;;;;;;;15.68;8.50;;;;;;;11.58;38.13;99552.88;4898349;29;20390;-77
2021/03/31 17:11:10;;;;;;;12.82;8.07;;;;;;;11.49;38.43;99544.59;4913354;29;20076;-76
2021/03/31 17:13:36;;;;;;;9.18;7.22;;;;;;;11.40;39.01;99548.88;4902326;29;20127;-76
2021/03/31 17:16:01;;;;;;;14.48;7.60;;;;;;;11.35;39.08;99545.16;4921591;29;20028;-77
2021/03/31 17:18:27;;;;;;;20.42;11.40;;;;;;;11.29;39.43;99545.41;4910058;29;20071;-77
2021/03/31 17:20:53;;;;;;;15.70;9.98;;;;;;;11.21;39.71;99550.22;4920907;29;20450;-77
2021/03/31 17:23:20;;;;;;;18.02;10.63;;;;;;;11.16;40.05;99546.75;4902775;29;20365;-78
2021/03/31 17:25:48;;;;;;;17.65;9.85;;;;;;;11.11;40.09;99552.91;4914155;29;20369;-79
2021/03/31 17:28:14;;;;;;;15.52;8.65;;;;;;;11.09;40.27;99559.59;4924724;29;20067;-79
2021/03/31 17:30:40;;;;;;;10.48;8.60;;;;;;;11.03;40.00;99561.44;4914896;29;20055;-79
2021/03/31 17:33:07;;;;;;;12.07;8.10;;;;;;;10.98;40.31;99554.22;4915673;29;20179;-79
2021/03/31 17:35:34;;;;;;;13.57;8.32;;;;;;;10.92;40.51;99570.53;4913331;29;20043;-78
2021/03/31 17:38:06;;;;;;;12.60;8.30;;;;;;;10.87;40.64;99565.97;4910387;29;20716;-77
2021/03/31 17:40:34;;;;;;;14.20;8.18;;;;;;;10.84;41.31;99563.81;4900250;29;20041;-77
2021/03/31 17:43:01;;;;;;;12.32;7.63;;;;;;;10.80;40.85;99573.47;4898088;29;20453;-80
2021/03/31 17:45:27;;;;;;;11.38;8.32;;;;;;;10.77;41.20;99572.13;4897311;29;20043;-78
2021/03/31 17:47:52;;;;;;;15.55;7.78;;;;;;;10.73;41.61;99577.19;4899015;29;20449;-77
2021/03/31 17:50:20;;;;;;;11.65;8.00;;;;;;;10.69;41.89;99572.63;4913552;29;20150;-77
2021/03/31 17:52:51;;;;;;;8.18;6.30;;;;;;;10.66;41.78;99578.50;4919406;29;20103;-78
2021/03/31 17:55:17;;;;;;;7.40;6.55;;;;;;;10.60;41.79;99577.69;4934949;29;20035;-78
2021/03/31 17:57:42;;;;;;;10.30;6.97;;;;;;;10.54;41.94;99579.53;4907814;29;20035;-79